sensor_id;sensor_type;location;lat;lon;timestamp;P1;durP1;ratioP1;P2;durP2;ratioP2
45356;SDS011;31092;51.924;21.448;2022-12-07T00:01:09;12.48;;;4.88;;
45356;SDS011;31092;51.924;21.448;2022-12-07T00:03:37;4.80;;;3.30;;
45356;SDS011;31092;51.924;21.448;2022-12-07T00:06:04;4.90;;;3.40;;
45356;SDS011;31092;51.924;21.448;2022-12-07T00:08:31;4.30;;;2.30;;
45356;SDS011;31092;51.924;21.448;2022-12-07T00:11:04;3.30;;;3.03;;
45356;SDS011;31092;51.924;21.448;2022-12-07T00:13:37;6.97;;;3.28;;
45356;SDS011;31092;51.924;21.448;2022-12-07T00:16:12;5.20;;;3.85;;
45356;SDS011;31092;51.924;21.448;2022-12-07T00:18:41;9.20;;;4.18;;
45356;SDS011;31092;51.924;21.448;2022-12-07T00:21:15;5.53;;;4.40;;
45356;SDS011;31092;51.924;21.448;2022-12-07T00:23:42;13.05;;;3.95;;
45356;SDS011;31092;51.924;21.448;2022-12-07T00:26:10;4.80;;;3.60;;
45356;SDS011;31092;51.924;21.448;2022-12-07T00:28:36;5.97;;;3.75;;
45356;SDS011;31092;51.924;21.448;2022-12-07T00:31:03;5.70;;;4.35;;
45356;SDS011;31092;51.924;21.448;2022-12-07T00:33:29;10.68;;;5.25;;
45356;SDS011;31092;51.924;21.448;2022-12-07T00:35:55;6.95;;;4.30;;
45356;SDS011;31092;51.924;21.448;2022-12-07T00:38:21;6.70;;;4.15;;
45356;SDS011;31092;51.924;21.448;2022-12-07T00:40:53;5.88;;;3.08;;
45356;SDS011;31092;51.924;21.448;2022-12-07T00:43:20;5.47;;;3.08;;
45356;SDS011;31092;51.924;21.448;2022-12-07T00:45:46;5.22;;;4.68;;
45356;SDS011;31092;51.924;21.448;2022-12-07T00:48:11;10.65;;;4.47;;
45356;SDS011;31092;51.924;21.448;2022-12-07T00:50:36;4.53;;;3.35;;
45356;SDS011;31092;51.924;21.448;2022-12-07T00:53:02;12.30;;;3.03;;
45356;SDS011;31092;51.924;21.448;2022-12-07T00:55:28;8.57;;;3.60;;
45356;SDS011;31092;51.924;21.448;2022-12-07T00:57:53;2.67;;;2.47;;
45356;SDS011;31092;51.924;21.448;2022-12-07T01:00:18;6.82;;;4.07;;
45356;SDS011;31092;51.924;21.448;2022-12-07T01:02:44;5.38;;;3.83;;
45356;SDS011;31092;51.924;21.448;2022-12-07T01:05:09;2.75;;;2.42;;
45356;SDS011;31092;51.924;21.448;2022-12-07T01:07:35;6.20;;;3.10;;
45356;SDS011;31092;51.924;21.448;2022-12-07T01:10:02;7.88;;;3.47;;
45356;SDS011;31092;51.924;21.448;2022-12-07T01:12:28;4.97;;;3.13;;
45356;SDS011;31092;51.924;21.448;2022-12-07T01:14:54;5.93;;;3.10;;
45356;SDS011;31092;51.924;21.448;2022-12-07T01:17:19;6.70;;;3.67;;
45356;SDS011;31092;51.924;21.448;2022-12-07T01:19:44;4.57;;;3.42;;
45356;SDS011;31092;51.924;21.448;2022-12-07T01:22:10;7.05;;;3.97;;
45356;SDS011;31092;51.924;21.448;2022-12-07T01:24:35;6.28;;;3.13;;
45356;SDS011;31092;51.924;21.448;2022-12-07T01:27:01;5.25;;;3.13;;
45356;SDS011;31092;51.924;21.448;2022-12-07T01:29:26;4.60;;;3.13;;
45356;SDS011;31092;51.924;21.448;2022-12-07T01:31:52;7.57;;;2.40;;
45356;SDS011;31092;51.924;21.448;2022-12-07T01:34:17;4.07;;;2.80;;
45356;SDS011;31092;51.924;21.448;2022-12-07T01:36:43;6.55;;;3.25;;
45356;SDS011;31092;51.924;21.448;2022-12-07T01:39:09;3.80;;;2.63;;
45356;SDS011;31092;51.924;21.448;2022-12-07T01:41:36;9.32;;;3.63;;
45356;SDS011;31092;51.924;21.448;2022-12-07T01:46:48;5.07;;;3.53;;
45356;SDS011;31092;51.924;21.448;2022-12-07T01:51:52;7.70;;;3.22;;
45356;SDS011;31092;51.924;21.448;2022-12-07T01:54:26;8.07;;;3.65;;
45356;SDS011;31092;51.924;21.448;2022-12-07T01:56:53;9.05;;;3.83;;
45356;SDS011;31092;51.924;21.448;2022-12-07T01:59:22;3.90;;;2.92;;
45356;SDS011;31092;51.924;21.448;2022-12-07T02:01:50;3.05;;;2.35;;
45356;SDS011;31092;51.924;21.448;2022-12-07T02:04:16;7.90;;;3.35;;
45356;SDS011;31092;51.924;21.448;2022-12-07T02:06:43;5.43;;;2.25;;
45356;SDS011;31092;51.924;21.448;2022-12-07T02:09:11;2.13;;;1.52;;
45356;SDS011;31092;51.924;21.448;2022-12-07T02:11:37;4.03;;;1.95;;
45356;SDS011;31092;51.924;21.448;2022-12-07T02:14:03;2.50;;;1.52;;
45356;SDS011;31092;51.924;21.448;2022-12-07T02:22:18;1.70;;;1.30;;
45356;SDS011;31092;51.924;21.448;2022-12-07T02:30:49;3.72;;;1.52;;
45356;SDS011;31092;51.924;21.448;2022-12-07T02:33:18;2.65;;;1.48;;
45356;SDS011;31092;51.924;21.448;2022-12-07T02:36:00;2.95;;;1.70;;
45356;SDS011;31092;51.924;21.448;2022-12-07T02:38:51;3.42;;;1.25;;
45356;SDS011;31092;51.924;21.448;2022-12-07T02:41:43;2.90;;;0.90;;
45356;SDS011;31092;51.924;21.448;2022-12-07T02:44:17;1.10;;;1.00;;
45356;SDS011;31092;51.924;21.448;2022-12-07T02:46:57;1.92;;;0.73;;
45356;SDS011;31092;51.924;21.448;2022-12-07T02:49:28;1.50;;;1.40;;
45356;SDS011;31092;51.924;21.448;2022-12-07T02:51:55;0.77;;;0.77;;
45356;SDS011;31092;51.924;21.448;2022-12-07T02:54:21;0.95;;;0.77;;
45356;SDS011;31092;51.924;21.448;2022-12-07T02:56:50;1.40;;;1.30;;
45356;SDS011;31092;51.924;21.448;2022-12-07T03:02:17;2.57;;;1.87;;
45356;SDS011;31092;51.924;21.448;2022-12-07T03:15:58;1.08;;;1.02;;
45356;SDS011;31092;51.924;21.448;2022-12-07T03:18:40;2.85;;;1.10;;
45356;SDS011;31092;51.924;21.448;2022-12-07T03:21:14;2.10;;;1.15;;
45356;SDS011;31092;51.924;21.448;2022-12-07T03:23:44;2.17;;;1.67;;
45356;SDS011;31092;51.924;21.448;2022-12-07T03:26:13;1.58;;;1.35;;
45356;SDS011;31092;51.924;21.448;2022-12-07T03:28:44;1.52;;;1.35;;
45356;SDS011;31092;51.924;21.448;2022-12-07T03:31:25;2.00;;;1.33;;
45356;SDS011;31092;51.924;21.448;2022-12-07T03:34:00;2.50;;;1.05;;
45356;SDS011;31092;51.924;21.448;2022-12-07T03:36:33;1.13;;;1.02;;
45356;SDS011;31092;51.924;21.448;2022-12-07T03:41:51;3.03;;;1.67;;
45356;SDS011;31092;51.924;21.448;2022-12-07T03:44:18;1.77;;;1.40;;
45356;SDS011;31092;51.924;21.448;2022-12-07T03:47:00;1.88;;;1.52;;
45356;SDS011;31092;51.924;21.448;2022-12-07T03:57:25;7.90;;;2.80;;
45356;SDS011;31092;51.924;21.448;2022-12-07T03:59:54;3.30;;;1.85;;
45356;SDS011;31092;51.924;21.448;2022-12-07T04:02:21;3.63;;;2.03;;
45356;SDS011;31092;51.924;21.448;2022-12-07T04:04:48;3.03;;;2.15;;
45356;SDS011;31092;51.924;21.448;2022-12-07T04:07:14;2.90;;;2.10;;
45356;SDS011;31092;51.924;21.448;2022-12-07T04:09:40;4.57;;;1.95;;
45356;SDS011;31092;51.924;21.448;2022-12-07T04:12:05;5.80;;;1.58;;
45356;SDS011;31092;51.924;21.448;2022-12-07T04:14:31;2.08;;;1.15;;
45356;SDS011;31092;51.924;21.448;2022-12-07T04:16:57;5.22;;;2.28;;
45356;SDS011;31092;51.924;21.448;2022-12-07T04:19:26;3.28;;;2.00;;
45356;SDS011;31092;51.924;21.448;2022-12-07T04:21:54;1.75;;;1.60;;
45356;SDS011;31092;51.924;21.448;2022-12-07T04:24:20;2.20;;;1.92;;
45356;SDS011;31092;51.924;21.448;2022-12-07T04:26:46;2.97;;;2.67;;
45356;SDS011;31092;51.924;21.448;2022-12-07T04:29:12;3.40;;;2.33;;
45356;SDS011;31092;51.924;21.448;2022-12-07T04:31:38;2.97;;;2.33;;
45356;SDS011;31092;51.924;21.448;2022-12-07T04:34:04;2.88;;;1.85;;
45356;SDS011;31092;51.924;21.448;2022-12-07T04:36:31;3.60;;;1.55;;
45356;SDS011;31092;51.924;21.448;2022-12-07T04:38:57;2.80;;;2.55;;
45356;SDS011;31092;51.924;21.448;2022-12-07T04:41:23;3.90;;;2.63;;
45356;SDS011;31092;51.924;21.448;2022-12-07T04:43:55;2.30;;;2.15;;
45356;SDS011;31092;51.924;21.448;2022-12-07T04:46:23;2.10;;;1.73;;
45356;SDS011;31092;51.924;21.448;2022-12-07T04:48:49;3.58;;;2.05;;
45356;SDS011;31092;51.924;21.448;2022-12-07T04:51:18;6.60;;;2.65;;
45356;SDS011;31092;51.924;21.448;2022-12-07T04:53:45;1.40;;;1.17;;
45356;SDS011;31092;51.924;21.448;2022-12-07T04:56:11;2.13;;;1.58;;
45356;SDS011;31092;51.924;21.448;2022-12-07T04:58:36;3.53;;;2.33;;
45356;SDS011;31092;51.924;21.448;2022-12-07T05:01:02;3.83;;;1.85;;
45356;SDS011;31092;51.924;21.448;2022-12-07T05:03:28;3.00;;;1.63;;
45356;SDS011;31092;51.924;21.448;2022-12-07T05:05:53;3.22;;;2.20;;
45356;SDS011;31092;51.924;21.448;2022-12-07T05:08:18;7.22;;;2.47;;
45356;SDS011;31092;51.924;21.448;2022-12-07T05:10:44;2.72;;;1.80;;
45356;SDS011;31092;51.924;21.448;2022-12-07T05:13:09;2.35;;;1.58;;
45356;SDS011;31092;51.924;21.448;2022-12-07T05:15:35;4.22;;;1.80;;
45356;SDS011;31092;51.924;21.448;2022-12-07T05:18:00;2.53;;;1.98;;
45356;SDS011;31092;51.924;21.448;2022-12-07T05:20:26;1.83;;;1.73;;
45356;SDS011;31092;51.924;21.448;2022-12-07T05:22:51;1.08;;;0.80;;
45356;SDS011;31092;51.924;21.448;2022-12-07T05:25:17;3.67;;;1.92;;
45356;SDS011;31092;51.924;21.448;2022-12-07T05:27:42;2.55;;;1.90;;
45356;SDS011;31092;51.924;21.448;2022-12-07T05:30:08;6.70;;;3.08;;
45356;SDS011;31092;51.924;21.448;2022-12-07T05:32:34;1.85;;;1.65;;
45356;SDS011;31092;51.924;21.448;2022-12-07T05:34:59;2.75;;;1.65;;
45356;SDS011;31092;51.924;21.448;2022-12-07T05:37:25;5.68;;;2.25;;
45356;SDS011;31092;51.924;21.448;2022-12-07T05:39:50;3.55;;;3.00;;
45356;SDS011;31092;51.924;21.448;2022-12-07T05:42:16;2.20;;;1.67;;
45356;SDS011;31092;51.924;21.448;2022-12-07T05:44:45;2.30;;;1.23;;
45356;SDS011;31092;51.924;21.448;2022-12-07T05:47:11;3.70;;;2.05;;
45356;SDS011;31092;51.924;21.448;2022-12-07T05:49:38;4.28;;;1.83;;
45356;SDS011;31092;51.924;21.448;2022-12-07T05:52:03;3.70;;;3.17;;
45356;SDS011;31092;51.924;21.448;2022-12-07T05:54:29;3.88;;;2.05;;
45356;SDS011;31092;51.924;21.448;2022-12-07T05:56:55;0.93;;;0.90;;
45356;SDS011;31092;51.924;21.448;2022-12-07T05:59:20;1.95;;;1.55;;
45356;SDS011;31092;51.924;21.448;2022-12-07T06:01:59;2.45;;;2.00;;
45356;SDS011;31092;51.924;21.448;2022-12-07T06:04:50;1.45;;;1.23;;
45356;SDS011;31092;51.924;21.448;2022-12-07T06:07:16;6.55;;;2.97;;
45356;SDS011;31092;51.924;21.448;2022-12-07T06:09:42;4.25;;;2.78;;
45356;SDS011;31092;51.924;21.448;2022-12-07T06:12:09;1.73;;;1.63;;
45356;SDS011;31092;51.924;21.448;2022-12-07T06:14:54;5.35;;;2.30;;
45356;SDS011;31092;51.924;21.448;2022-12-07T06:17:19;2.72;;;1.58;;
45356;SDS011;31092;51.924;21.448;2022-12-07T06:19:45;2.75;;;2.20;;
45356;SDS011;31092;51.924;21.448;2022-12-07T06:22:11;3.97;;;2.28;;
45356;SDS011;31092;51.924;21.448;2022-12-07T06:24:37;4.60;;;2.33;;
45356;SDS011;31092;51.924;21.448;2022-12-07T06:27:03;1.85;;;1.02;;
45356;SDS011;31092;51.924;21.448;2022-12-07T06:29:30;3.53;;;2.03;;
45356;SDS011;31092;51.924;21.448;2022-12-07T06:31:55;2.92;;;1.98;;
45356;SDS011;31092;51.924;21.448;2022-12-07T06:34:21;5.25;;;1.95;;
45356;SDS011;31092;51.924;21.448;2022-12-07T06:36:48;3.50;;;1.23;;
45356;SDS011;31092;51.924;21.448;2022-12-07T06:39:17;2.97;;;1.40;;
45356;SDS011;31092;51.924;21.448;2022-12-07T06:41:44;4.75;;;1.50;;
45356;SDS011;31092;51.924;21.448;2022-12-07T06:44:09;1.63;;;1.50;;
45356;SDS011;31092;51.924;21.448;2022-12-07T06:46:35;2.83;;;1.83;;
45356;SDS011;31092;51.924;21.448;2022-12-07T06:49:00;3.75;;;2.08;;
45356;SDS011;31092;51.924;21.448;2022-12-07T06:51:26;2.47;;;2.17;;
45356;SDS011;31092;51.924;21.448;2022-12-07T06:53:52;1.92;;;1.50;;
45356;SDS011;31092;51.924;21.448;2022-12-07T06:56:18;2.80;;;2.20;;
45356;SDS011;31092;51.924;21.448;2022-12-07T06:58:43;3.00;;;1.17;;
45356;SDS011;31092;51.924;21.448;2022-12-07T07:01:13;4.45;;;2.30;;
45356;SDS011;31092;51.924;21.448;2022-12-07T07:03:40;5.63;;;2.33;;
45356;SDS011;31092;51.924;21.448;2022-12-07T07:06:06;5.07;;;1.63;;
45356;SDS011;31092;51.924;21.448;2022-12-07T07:08:32;2.03;;;1.55;;
45356;SDS011;31092;51.924;21.448;2022-12-07T07:10:59;4.97;;;2.08;;
45356;SDS011;31092;51.924;21.448;2022-12-07T07:13:24;3.80;;;1.70;;
45356;SDS011;31092;51.924;21.448;2022-12-07T07:15:50;3.70;;;2.15;;
45356;SDS011;31092;51.924;21.448;2022-12-07T07:18:15;2.80;;;1.63;;
45356;SDS011;31092;51.924;21.448;2022-12-07T07:20:41;1.77;;;1.35;;
45356;SDS011;31092;51.924;21.448;2022-12-07T07:23:06;2.47;;;2.15;;
45356;SDS011;31092;51.924;21.448;2022-12-07T07:25:32;4.40;;;1.40;;
45356;SDS011;31092;51.924;21.448;2022-12-07T07:27:58;2.00;;;1.02;;
45356;SDS011;31092;51.924;21.448;2022-12-07T07:30:24;3.80;;;1.60;;
45356;SDS011;31092;51.924;21.448;2022-12-07T07:32:50;5.30;;;1.25;;
45356;SDS011;31092;51.924;21.448;2022-12-07T07:35:16;4.43;;;2.20;;
45356;SDS011;31092;51.924;21.448;2022-12-07T07:37:42;2.47;;;1.52;;
45356;SDS011;31092;51.924;21.448;2022-12-07T07:40:08;1.58;;;1.20;;
45356;SDS011;31092;51.924;21.448;2022-12-07T07:42:34;1.13;;;1.08;;
45356;SDS011;31092;51.924;21.448;2022-12-07T07:44:59;2.50;;;1.67;;
45356;SDS011;31092;51.924;21.448;2022-12-07T07:47:25;1.85;;;1.63;;
45356;SDS011;31092;51.924;21.448;2022-12-07T07:49:50;2.17;;;2.03;;
45356;SDS011;31092;51.924;21.448;2022-12-07T07:52:16;1.92;;;1.63;;
45356;SDS011;31092;51.924;21.448;2022-12-07T07:54:41;1.55;;;1.45;;
45356;SDS011;31092;51.924;21.448;2022-12-07T07:57:07;4.05;;;2.40;;
45356;SDS011;31092;51.924;21.448;2022-12-07T07:59:32;5.05;;;2.83;;
45356;SDS011;31092;51.924;21.448;2022-12-07T08:01:58;3.15;;;2.08;;
45356;SDS011;31092;51.924;21.448;2022-12-07T08:04:23;2.40;;;2.15;;
45356;SDS011;31092;51.924;21.448;2022-12-07T08:06:49;1.52;;;1.10;;
45356;SDS011;31092;51.924;21.448;2022-12-07T08:09:14;1.73;;;1.55;;
45356;SDS011;31092;51.924;21.448;2022-12-07T08:11:40;1.52;;;0.85;;
45356;SDS011;31092;51.924;21.448;2022-12-07T08:14:05;1.83;;;1.58;;
45356;SDS011;31092;51.924;21.448;2022-12-07T08:16:31;2.83;;;2.42;;
45356;SDS011;31092;51.924;21.448;2022-12-07T08:18:57;2.30;;;2.10;;
45356;SDS011;31092;51.924;21.448;2022-12-07T08:21:22;2.38;;;2.17;;
45356;SDS011;31092;51.924;21.448;2022-12-07T08:23:48;2.47;;;1.05;;
45356;SDS011;31092;51.924;21.448;2022-12-07T08:26:14;2.80;;;1.45;;
45356;SDS011;31092;51.924;21.448;2022-12-07T08:28:41;5.90;;;2.45;;
45356;SDS011;31092;51.924;21.448;2022-12-07T08:31:08;4.55;;;2.90;;
45356;SDS011;31092;51.924;21.448;2022-12-07T08:33:36;7.22;;;1.73;;
45356;SDS011;31092;51.924;21.448;2022-12-07T08:36:03;2.90;;;1.52;;
45356;SDS011;31092;51.924;21.448;2022-12-07T08:38:30;1.65;;;1.55;;
45356;SDS011;31092;51.924;21.448;2022-12-07T08:40:56;2.05;;;1.63;;
45356;SDS011;31092;51.924;21.448;2022-12-07T08:43:23;1.40;;;1.10;;
45356;SDS011;31092;51.924;21.448;2022-12-07T08:45:50;2.28;;;1.48;;
45356;SDS011;31092;51.924;21.448;2022-12-07T08:48:41;1.70;;;1.40;;
45356;SDS011;31092;51.924;21.448;2022-12-07T08:51:28;0.73;;;0.73;;
45356;SDS011;31092;51.924;21.448;2022-12-07T08:53:54;3.47;;;2.55;;
45356;SDS011;31092;51.924;21.448;2022-12-07T08:56:23;1.90;;;1.08;;
45356;SDS011;31092;51.924;21.448;2022-12-07T08:58:49;4.70;;;1.73;;
45356;SDS011;31092;51.924;21.448;2022-12-07T09:01:15;2.05;;;1.85;;
45356;SDS011;31092;51.924;21.448;2022-12-07T09:03:41;5.72;;;1.65;;
45356;SDS011;31092;51.924;21.448;2022-12-07T09:06:06;1.67;;;1.45;;
45356;SDS011;31092;51.924;21.448;2022-12-07T09:08:34;7.63;;;2.33;;
45356;SDS011;31092;51.924;21.448;2022-12-07T09:11:02;1.80;;;1.70;;
45356;SDS011;31092;51.924;21.448;2022-12-07T09:13:28;2.22;;;1.15;;
45356;SDS011;31092;51.924;21.448;2022-12-07T09:15:53;2.92;;;2.03;;
45356;SDS011;31092;51.924;21.448;2022-12-07T09:18:23;1.88;;;1.27;;
45356;SDS011;31092;51.924;21.448;2022-12-07T09:20:49;3.08;;;2.03;;
45356;SDS011;31092;51.924;21.448;2022-12-07T09:23:15;1.58;;;1.48;;
45356;SDS011;31092;51.924;21.448;2022-12-07T09:25:41;1.58;;;1.48;;
45356;SDS011;31092;51.924;21.448;2022-12-07T09:28:06;2.83;;;1.23;;
45356;SDS011;31092;51.924;21.448;2022-12-07T09:30:32;1.35;;;1.17;;
45356;SDS011;31092;51.924;21.448;2022-12-07T09:32:57;1.98;;;1.77;;
45356;SDS011;31092;51.924;21.448;2022-12-07T09:35:23;1.45;;;1.27;;
45356;SDS011;31092;51.924;21.448;2022-12-07T09:37:49;1.38;;;1.30;;
45356;SDS011;31092;51.924;21.448;2022-12-07T09:40:16;2.75;;;0.85;;
45356;SDS011;31092;51.924;21.448;2022-12-07T09:42:44;2.65;;;1.75;;
45356;SDS011;31092;51.924;21.448;2022-12-07T09:45:21;3.07;;;1.50;;
45356;SDS011;31092;51.924;21.448;2022-12-07T09:47:52;7.93;;;2.38;;
45356;SDS011;31092;51.924;21.448;2022-12-07T09:50:21;2.80;;;0.98;;
45356;SDS011;31092;51.924;21.448;2022-12-07T09:52:49;3.08;;;2.15;;
45356;SDS011;31092;51.924;21.448;2022-12-07T09:55:21;0.82;;;0.80;;
45356;SDS011;31092;51.924;21.448;2022-12-07T09:57:50;3.67;;;2.60;;
45356;SDS011;31092;51.924;21.448;2022-12-07T10:00:17;1.77;;;1.63;;
45356;SDS011;31092;51.924;21.448;2022-12-07T10:02:51;3.40;;;1.75;;
45356;SDS011;31092;51.924;21.448;2022-12-07T10:05:22;9.52;;;2.85;;
45356;SDS011;31092;51.924;21.448;2022-12-07T10:07:52;3.58;;;2.70;;
45356;SDS011;31092;51.924;21.448;2022-12-07T10:10:20;1.90;;;1.30;;
45356;SDS011;31092;51.924;21.448;2022-12-07T10:13:00;5.18;;;1.42;;
45356;SDS011;31092;51.924;21.448;2022-12-07T10:15:44;6.88;;;2.63;;
45356;SDS011;31092;51.924;21.448;2022-12-07T10:18:18;5.40;;;2.00;;
45356;SDS011;31092;51.924;21.448;2022-12-07T10:20:50;3.10;;;1.95;;
45356;SDS011;31092;51.924;21.448;2022-12-07T10:23:26;2.13;;;1.33;;
45356;SDS011;31092;51.924;21.448;2022-12-07T10:25:51;3.03;;;2.75;;
45356;SDS011;31092;51.924;21.448;2022-12-07T10:28:20;2.03;;;1.58;;
45356;SDS011;31092;51.924;21.448;2022-12-07T10:36:00;3.15;;;1.60;;
45356;SDS011;31092;51.924;21.448;2022-12-07T10:38:44;3.95;;;2.33;;
45356;SDS011;31092;51.924;21.448;2022-12-07T10:41:11;5.35;;;2.17;;
45356;SDS011;31092;51.924;21.448;2022-12-07T10:43:36;3.28;;;1.95;;
45356;SDS011;31092;51.924;21.448;2022-12-07T10:46:07;7.53;;;2.08;;
45356;SDS011;31092;51.924;21.448;2022-12-07T10:49:07;1.35;;;1.25;;
45356;SDS011;31092;51.924;21.448;2022-12-07T11:05:26;3.55;;;2.53;;
45356;SDS011;31092;51.924;21.448;2022-12-07T11:21:10;3.47;;;2.35;;
45356;SDS011;31092;51.924;21.448;2022-12-07T11:26:34;3.25;;;2.03;;
45356;SDS011;31092;51.924;21.448;2022-12-07T11:37:55;3.33;;;1.95;;
45356;SDS011;31092;51.924;21.448;2022-12-07T11:40:33;3.03;;;1.90;;
45356;SDS011;31092;51.924;21.448;2022-12-07T11:43:05;5.60;;;2.40;;
45356;SDS011;31092;51.924;21.448;2022-12-07T11:45:41;2.72;;;1.90;;
45356;SDS011;31092;51.924;21.448;2022-12-07T11:48:14;2.50;;;1.55;;
45356;SDS011;31092;51.924;21.448;2022-12-07T11:50:56;3.45;;;2.53;;
45356;SDS011;31092;51.924;21.448;2022-12-07T11:56:25;3.25;;;2.40;;
45356;SDS011;31092;51.924;21.448;2022-12-07T11:59:36;5.32;;;2.05;;
45356;SDS011;31092;51.924;21.448;2022-12-07T12:01:53;4.90;;;2.10;;
45356;SDS011;31092;51.924;21.448;2022-12-07T12:06:54;5.53;;;2.03;;
45356;SDS011;31092;51.924;21.448;2022-12-07T12:09:25;1.60;;;1.23;;
45356;SDS011;31092;51.924;21.448;2022-12-07T12:17:23;6.43;;;2.78;;
45356;SDS011;31092;51.924;21.448;2022-12-07T12:20:06;3.47;;;2.25;;
45356;SDS011;31092;51.924;21.448;2022-12-07T12:22:52;4.72;;;1.10;;
45356;SDS011;31092;51.924;21.448;2022-12-07T12:25:24;3.03;;;2.13;;
45356;SDS011;31092;51.924;21.448;2022-12-07T12:27:53;6.00;;;1.27;;
45356;SDS011;31092;51.924;21.448;2022-12-07T12:30:40;4.18;;;2.03;;
45356;SDS011;31092;51.924;21.448;2022-12-07T12:35:39;3.42;;;3.03;;
45356;SDS011;31092;51.924;21.448;2022-12-07T12:41:50;5.03;;;3.08;;
45356;SDS011;31092;51.924;21.448;2022-12-07T12:54:24;3.15;;;1.45;;
45356;SDS011;31092;51.924;21.448;2022-12-07T12:59:39;4.53;;;2.13;;
45356;SDS011;31092;51.924;21.448;2022-12-07T13:02:26;3.38;;;1.70;;
45356;SDS011;31092;51.924;21.448;2022-12-07T13:15:32;3.67;;;2.15;;
45356;SDS011;31092;51.924;21.448;2022-12-07T13:18:04;3.85;;;1.98;;
45356;SDS011;31092;51.924;21.448;2022-12-07T13:20:52;2.50;;;1.02;;
45356;SDS011;31092;51.924;21.448;2022-12-07T13:23:51;2.33;;;1.38;;
45356;SDS011;31092;51.924;21.448;2022-12-07T13:31:48;3.60;;;1.10;;
45356;SDS011;31092;51.924;21.448;2022-12-07T13:34:35;1.80;;;1.23;;
45356;SDS011;31092;51.924;21.448;2022-12-07T13:37:08;2.78;;;1.17;;
45356;SDS011;31092;51.924;21.448;2022-12-07T13:39:44;4.68;;;1.30;;
45356;SDS011;31092;51.924;21.448;2022-12-07T13:42:19;2.70;;;1.98;;
45356;SDS011;31092;51.924;21.448;2022-12-07T13:44:51;0.90;;;0.90;;
45356;SDS011;31092;51.924;21.448;2022-12-07T13:47:18;5.25;;;1.33;;
45356;SDS011;31092;51.924;21.448;2022-12-07T13:49:53;1.00;;;0.63;;
45356;SDS011;31092;51.924;21.448;2022-12-07T13:52:27;2.72;;;2.20;;
45356;SDS011;31092;51.924;21.448;2022-12-07T13:57:25;3.03;;;0.95;;
45356;SDS011;31092;51.924;21.448;2022-12-07T13:59:53;1.73;;;1.30;;
45356;SDS011;31092;51.924;21.448;2022-12-07T14:02:29;1.02;;;0.77;;
45356;SDS011;31092;51.924;21.448;2022-12-07T14:05:07;5.15;;;1.50;;
45356;SDS011;31092;51.924;21.448;2022-12-07T14:07:35;1.80;;;1.67;;
45356;SDS011;31092;51.924;21.448;2022-12-07T14:10:27;3.47;;;2.55;;
45356;SDS011;31092;51.924;21.448;2022-12-07T14:12:58;3.38;;;1.90;;
45356;SDS011;31092;51.924;21.448;2022-12-07T14:15:32;2.80;;;1.58;;
45356;SDS011;31092;51.924;21.448;2022-12-07T14:17:59;4.13;;;2.28;;
45356;SDS011;31092;51.924;21.448;2022-12-07T14:23:23;1.52;;;1.17;;
45356;SDS011;31092;51.924;21.448;2022-12-07T14:25:51;2.53;;;1.83;;
45356;SDS011;31092;51.924;21.448;2022-12-07T14:28:30;2.47;;;1.45;;
45356;SDS011;31092;51.924;21.448;2022-12-07T14:31:00;3.55;;;2.22;;
45356;SDS011;31092;51.924;21.448;2022-12-07T14:33:27;5.90;;;2.72;;
45356;SDS011;31092;51.924;21.448;2022-12-07T14:35:53;2.22;;;1.25;;
45356;SDS011;31092;51.924;21.448;2022-12-07T14:38:23;6.72;;;3.88;;
45356;SDS011;31092;51.924;21.448;2022-12-07T14:40:50;10.77;;;5.22;;
45356;SDS011;31092;51.924;21.448;2022-12-07T14:43:17;4.43;;;2.28;;
45356;SDS011;31092;51.924;21.448;2022-12-07T14:45:45;2.97;;;1.27;;
45356;SDS011;31092;51.924;21.448;2022-12-07T14:48:11;1.90;;;0.95;;
45356;SDS011;31092;51.924;21.448;2022-12-07T14:50:40;4.57;;;2.28;;
45356;SDS011;31092;51.924;21.448;2022-12-07T14:53:12;2.42;;;2.20;;
45356;SDS011;31092;51.924;21.448;2022-12-07T14:55:40;3.58;;;1.77;;
45356;SDS011;31092;51.924;21.448;2022-12-07T14:58:06;2.50;;;1.15;;
45356;SDS011;31092;51.924;21.448;2022-12-07T15:00:37;2.53;;;2.25;;
45356;SDS011;31092;51.924;21.448;2022-12-07T15:03:02;1.27;;;1.15;;
45356;SDS011;31092;51.924;21.448;2022-12-07T15:05:28;2.13;;;2.03;;
45356;SDS011;31092;51.924;21.448;2022-12-07T15:07:53;2.17;;;1.98;;
45356;SDS011;31092;51.924;21.448;2022-12-07T15:10:20;1.35;;;0.95;;
45356;SDS011;31092;51.924;21.448;2022-12-07T15:12:47;2.88;;;1.48;;
45356;SDS011;31092;51.924;21.448;2022-12-07T15:15:13;3.08;;;1.55;;
45356;SDS011;31092;51.924;21.448;2022-12-07T15:17:39;1.75;;;1.10;;
45356;SDS011;31092;51.924;21.448;2022-12-07T15:20:05;2.05;;;1.88;;
45356;SDS011;31092;51.924;21.448;2022-12-07T15:22:36;2.63;;;2.40;;
45356;SDS011;31092;51.924;21.448;2022-12-07T15:25:01;1.52;;;1.05;;
45356;SDS011;31092;51.924;21.448;2022-12-07T15:27:29;3.90;;;1.98;;
45356;SDS011;31092;51.924;21.448;2022-12-07T15:29:55;2.80;;;1.08;;
45356;SDS011;31092;51.924;21.448;2022-12-07T15:32:21;3.13;;;2.67;;
45356;SDS011;31092;51.924;21.448;2022-12-07T15:34:48;1.85;;;1.13;;
45356;SDS011;31092;51.924;21.448;2022-12-07T15:37:14;2.72;;;2.10;;
45356;SDS011;31092;51.924;21.448;2022-12-07T15:39:40;2.38;;;1.50;;
45356;SDS011;31092;51.924;21.448;2022-12-07T15:42:05;2.80;;;2.03;;
45356;SDS011;31092;51.924;21.448;2022-12-07T15:44:31;4.32;;;2.53;;
45356;SDS011;31092;51.924;21.448;2022-12-07T15:47:15;2.90;;;1.35;;
45356;SDS011;31092;51.924;21.448;2022-12-07T15:49:40;4.78;;;2.67;;
45356;SDS011;31092;51.924;21.448;2022-12-07T15:52:06;5.25;;;3.50;;
45356;SDS011;31092;51.924;21.448;2022-12-07T15:54:31;6.95;;;3.55;;
45356;SDS011;31092;51.924;21.448;2022-12-07T15:56:57;10.95;;;3.47;;
45356;SDS011;31092;51.924;21.448;2022-12-07T15:59:23;5.00;;;3.72;;
45356;SDS011;31092;51.924;21.448;2022-12-07T16:01:50;3.15;;;2.70;;
45356;SDS011;31092;51.924;21.448;2022-12-07T16:04:16;3.53;;;3.22;;
45356;SDS011;31092;51.924;21.448;2022-12-07T16:06:41;3.28;;;2.28;;
45356;SDS011;31092;51.924;21.448;2022-12-07T16:09:07;3.83;;;1.90;;
45356;SDS011;31092;51.924;21.448;2022-12-07T16:11:32;4.60;;;2.85;;
45356;SDS011;31092;51.924;21.448;2022-12-07T16:13:58;4.65;;;4.18;;
45356;SDS011;31092;51.924;21.448;2022-12-07T16:16:24;4.57;;;2.00;;
45356;SDS011;31092;51.924;21.448;2022-12-07T16:18:50;2.47;;;2.05;;
45356;SDS011;31092;51.924;21.448;2022-12-07T16:21:16;4.97;;;2.13;;
45356;SDS011;31092;51.924;21.448;2022-12-07T16:23:42;3.63;;;2.45;;
45356;SDS011;31092;51.924;21.448;2022-12-07T16:26:13;3.50;;;2.50;;
45356;SDS011;31092;51.924;21.448;2022-12-07T16:28:41;3.42;;;2.97;;
45356;SDS011;31092;51.924;21.448;2022-12-07T16:31:18;6.22;;;3.70;;
45356;SDS011;31092;51.924;21.448;2022-12-07T16:33:46;7.95;;;4.25;;
45356;SDS011;31092;51.924;21.448;2022-12-07T16:36:13;2.75;;;2.35;;
45356;SDS011;31092;51.924;21.448;2022-12-07T16:38:41;4.82;;;2.80;;
45356;SDS011;31092;51.924;21.448;2022-12-07T16:41:08;5.82;;;3.33;;
45356;SDS011;31092;51.924;21.448;2022-12-07T16:43:35;6.60;;;2.92;;
45356;SDS011;31092;51.924;21.448;2022-12-07T16:46:02;6.57;;;2.50;;
45356;SDS011;31092;51.924;21.448;2022-12-07T16:48:28;6.18;;;3.75;;
45356;SDS011;31092;51.924;21.448;2022-12-07T16:50:53;8.10;;;3.35;;
45356;SDS011;31092;51.924;21.448;2022-12-07T16:53:19;7.03;;;3.83;;
45356;SDS011;31092;51.924;21.448;2022-12-07T16:55:46;3.65;;;2.40;;
45356;SDS011;31092;51.924;21.448;2022-12-07T16:58:14;3.88;;;1.85;;
45356;SDS011;31092;51.924;21.448;2022-12-07T17:00:40;6.22;;;3.17;;